sensor_id;sensor_type;location;lat;lon;timestamp;pressure;altitude;pressure_sealevel;temperature;humidity
45731;BME280;31440;48.584;13.460;2022-11-15T00:01:52;96888.00;;;3.39;100.00
45731;BME280;31440;48.584;13.460;2022-11-15T00:04:37;96893.41;;;3.13;100.00
45731;BME280;31440;48.584;13.460;2022-11-15T00:07:21;96883.88;;;3.24;100.00
45731;BME280;31440;48.584;13.460;2022-11-15T00:10:05;96880.44;;;3.23;100.00
45731;BME280;31440;48.584;13.460;2022-11-15T00:12:50;96878.03;;;3.08;100.00
45731;BME280;31440;48.584;13.460;2022-11-15T00:15:36;96878.69;;;3.30;100.00
45731;BME280;31440;48.584;13.460;2022-11-15T00:18:20;96883.84;;;3.29;100.00
45731;BME280;31440;48.584;13.460;2022-11-15T00:21:10;96874.28;;;3.40;100.00
45731;BME280;31440;48.584;13.460;2022-11-15T00:23:54;96869.81;;;3.57;100.00
45731;BME280;31440;48.584;13.460;2022-11-15T00:26:39;96868.16;;;3.54;100.00
45731;BME280;31440;48.584;13.460;2022-11-15T00:29:23;96867.38;;;3.46;100.00
45731;BME280;31440;48.584;13.460;2022-11-15T00:32:07;96871.72;;;3.40;100.00
45731;BME280;31440;48.584;13.460;2022-11-15T00:34:51;96862.22;;;3.49;100.00
45731;BME280;31440;48.584;13.460;2022-11-15T00:37:35;96865.88;;;3.27;100.00
45731;BME280;31440;48.584;13.460;2022-11-15T00:40:20;96865.09;;;3.19;100.00
45731;BME280;31440;48.584;13.460;2022-11-15T00:43:04;96871.97;;;3.15;100.00
45731;BME280;31440;48.584;13.460;2022-11-15T00:45:48;96869.47;;;3.06;100.00
45731;BME280;31440;48.584;13.460;2022-11-15T00:48:32;96843.25;;;2.72;100.00
45731;BME280;31440;48.584;13.460;2022-11-15T00:51:18;96835.66;;;2.57;100.00
45731;BME280;31440;48.584;13.460;2022-11-15T00:54:02;96860.31;;;2.79;100.00
45731;BME280;31440;48.584;13.460;2022-11-15T00:56:46;96864.75;;;2.58;100.00
45731;BME280;31440;48.584;13.460;2022-11-15T00:59:31;96864.00;;;2.40;100.00
45731;BME280;31440;48.584;13.460;2022-11-15T01:02:15;96867.22;;;2.67;100.00
45731;BME280;31440;48.584;13.460;2022-11-15T01:04:59;96856.91;;;2.74;100.00
45731;BME280;31440;48.584;13.460;2022-11-15T01:07:43;96859.59;;;2.61;100.00
45731;BME280;31440;48.584;13.460;2022-11-15T01:10:28;96849.19;;;2.76;100.00
45731;BME280;31440;48.584;13.460;2022-11-15T01:13:12;96841.66;;;2.54;100.00
45731;BME280;31440;48.584;13.460;2022-11-15T01:15:56;96843.22;;;2.77;100.00
45731;BME280;31440;48.584;13.460;2022-11-15T01:18:40;96838.94;;;2.73;100.00
45731;BME280;31440;48.584;13.460;2022-11-15T01:21:25;96838.13;;;2.69;100.00
45731;BME280;31440;48.584;13.460;2022-11-15T01:24:12;96829.16;;;3.17;100.00
45731;BME280;31440;48.584;13.460;2022-11-15T01:26:56;96824.09;;;3.05;100.00
45731;BME280;31440;48.584;13.460;2022-11-15T01:29:41;96820.81;;;2.93;100.00
45731;BME280;31440;48.584;13.460;2022-11-15T01:32:25;96820.66;;;3.08;100.00
45731;BME280;31440;48.584;13.460;2022-11-15T01:35:09;96820.06;;;2.81;100.00
45731;BME280;31440;48.584;13.460;2022-11-15T01:37:54;96826.97;;;2.72;100.00
45731;BME280;31440;48.584;13.460;2022-11-15T01:40:38;96819.22;;;2.81;100.00
45731;BME280;31440;48.584;13.460;2022-11-15T01:43:25;96820.09;;;2.77;100.00
45731;BME280;31440;48.584;13.460;2022-11-15T01:46:42;96815.88;;;2.68;100.00
45731;BME280;31440;48.584;13.460;2022-11-15T01:49:21;96816.94;;;2.43;100.00
45731;BME280;31440;48.584;13.460;2022-11-15T01:52:09;96806.44;;;2.72;100.00
45731;BME280;31440;48.584;13.460;2022-11-15T01:57:55;96802.31;;;2.56;100.00
45731;BME280;31440;48.584;13.460;2022-11-15T02:00:40;96794.63;;;2.49;100.00
45731;BME280;31440;48.584;13.460;2022-11-15T02:03:33;96797.28;;;2.42;100.00
45731;BME280;31440;48.584;13.460;2022-11-15T02:06:18;96788.06;;;2.15;100.00
45731;BME280;31440;48.584;13.460;2022-11-15T02:09:03;96785.38;;;2.30;100.00
45731;BME280;31440;48.584;13.460;2022-11-15T02:11:48;96801.47;;;2.49;100.00
45731;BME280;31440;48.584;13.460;2022-11-15T02:14:34;96799.97;;;2.25;100.00
45731;BME280;31440;48.584;13.460;2022-11-15T02:20:42;96795.56;;;2.42;100.00
45731;BME280;31440;48.584;13.460;2022-11-15T02:30:12;96777.75;;;2.21;100.00
45731;BME280;31440;48.584;13.460;2022-11-15T02:33:03;96783.88;;;2.02;100.00
45731;BME280;31440;48.584;13.460;2022-11-15T02:35:59;96783.03;;;2.01;100.00
45731;BME280;31440;48.584;13.460;2022-11-15T02:38:54;96771.69;;;2.33;100.00
45731;BME280;31440;48.584;13.460;2022-11-15T02:41:54;96773.59;;;2.05;100.00
45731;BME280;31440;48.584;13.460;2022-11-15T02:44:44;96768.34;;;2.25;100.00
45731;BME280;31440;48.584;13.460;2022-11-15T02:47:32;96757.22;;;2.24;100.00
45731;BME280;31440;48.584;13.460;2022-11-15T02:50:21;96766.66;;;2.16;100.00
45731;BME280;31440;48.584;13.460;2022-11-15T02:53:08;96762.31;;;2.29;100.00
45731;BME280;31440;48.584;13.460;2022-11-15T02:55:54;96759.84;;;2.15;100.00
45731;BME280;31440;48.584;13.460;2022-11-15T02:58:46;96768.47;;;2.02;100.00
45731;BME280;31440;48.584;13.460;2022-11-15T03:11:05;96760.97;;;1.76;100.00
45731;BME280;31440;48.584;13.460;2022-11-15T03:14:21;96758.41;;;1.76;100.00
45731;BME280;31440;48.584;13.460;2022-11-15T03:20:10;96749.88;;;1.75;100.00
45731;BME280;31440;48.584;13.460;2022-11-15T03:23:09;96758.34;;;1.82;100.00
45731;BME280;31440;48.584;13.460;2022-11-15T03:25:54;96753.09;;;2.03;100.00
45731;BME280;31440;48.584;13.460;2022-11-15T03:28:50;96756.66;;;1.79;100.00
45731;BME280;31440;48.584;13.460;2022-11-15T03:31:38;96754.16;;;1.70;100.00
45731;BME280;31440;48.584;13.460;2022-11-15T03:34:50;96752.31;;;1.94;100.00
45731;BME280;31440;48.584;13.460;2022-11-15T03:37:54;96742.97;;;1.79;100.00
45731;BME280;31440;48.584;13.460;2022-11-15T03:40:40;96741.44;;;1.55;100.00
45731;BME280;31440;48.584;13.460;2022-11-15T03:43:42;96739.81;;;1.34;100.00
45731;BME280;31440;48.584;13.460;2022-11-15T03:46:40;96744.66;;;1.84;100.00
45731;BME280;31440;48.584;13.460;2022-11-15T03:49:29;96738.97;;;1.34;100.00
45731;BME280;31440;48.584;13.460;2022-11-15T03:52:20;96743.16;;;1.50;100.00
45731;BME280;31440;48.584;13.460;2022-11-15T03:55:09;96739.63;;;1.68;100.00
45731;BME280;31440;48.584;13.460;2022-11-15T03:57:56;96715.72;;;1.64;100.00
45731;BME280;31440;48.584;13.460;2022-11-15T04:00:42;96728.34;;;1.95;100.00
45731;BME280;31440;48.584;13.460;2022-11-15T04:03:26;96740.47;;;1.71;100.00
45731;BME280;31440;48.584;13.460;2022-11-15T04:06:11;96734.50;;;1.71;100.00
45731;BME280;31440;48.584;13.460;2022-11-15T04:08:55;96729.50;;;1.40;100.00
45731;BME280;31440;48.584;13.460;2022-11-15T04:11:39;96726.78;;;1.75;100.00
45731;BME280;31440;48.584;13.460;2022-11-15T04:14:23;96735.38;;;1.64;100.00
45731;BME280;31440;48.584;13.460;2022-11-15T04:17:07;96736.28;;;1.57;100.00
45731;BME280;31440;48.584;13.460;2022-11-15T04:19:52;96729.47;;;1.54;100.00
45731;BME280;31440;48.584;13.460;2022-11-15T04:22:57;96730.25;;;1.64;100.00
45731;BME280;31440;48.584;13.460;2022-11-15T04:26:03;96718.28;;;1.70;100.00
45731;BME280;31440;48.584;13.460;2022-11-15T04:28:48;96724.38;;;1.43;100.00
45731;BME280;31440;48.584;13.460;2022-11-15T04:31:51;96723.31;;;1.78;100.00
45731;BME280;31440;48.584;13.460;2022-11-15T04:34:36;96718.41;;;1.46;100.00
45731;BME280;31440;48.584;13.460;2022-11-15T04:37:22;96712.31;;;1.65;100.00
45731;BME280;31440;48.584;13.460;2022-11-15T04:40:07;96704.50;;;1.80;100.00
45731;BME280;31440;48.584;13.460;2022-11-15T04:42:51;96700.53;;;1.38;100.00
45731;BME280;31440;48.584;13.460;2022-11-15T04:45:36;96718.41;;;1.43;100.00
45731;BME280;31440;48.584;13.460;2022-11-15T04:48:20;96713.88;;;1.86;100.00
45731;BME280;31440;48.584;13.460;2022-11-15T04:51:04;96708.03;;;1.64;100.00
45731;BME280;31440;48.584;13.460;2022-11-15T04:53:49;96694.50;;;1.42;100.00
45731;BME280;31440;48.584;13.460;2022-11-15T04:56:33;96694.50;;;1.44;100.00
45731;BME280;31440;48.584;13.460;2022-11-15T04:59:18;96692.06;;;1.17;100.00
45731;BME280;31440;48.584;13.460;2022-11-15T05:02:01;96692.81;;;1.40;100.00
45731;BME280;31440;48.584;13.460;2022-11-15T05:04:46;96690.47;;;0.87;100.00
45731;BME280;31440;48.584;13.460;2022-11-15T05:07:30;96694.66;;;1.07;100.00
45731;BME280;31440;48.584;13.460;2022-11-15T05:12:58;96694.78;;;0.80;100.00
45731;BME280;31440;48.584;13.460;2022-11-15T05:15:42;96698.28;;;0.39;100.00
45731;BME280;31440;48.584;13.460;2022-11-15T05:18:27;96693.13;;;0.56;100.00
45731;BME280;31440;48.584;13.460;2022-11-15T05:21:13;96688.06;;;0.20;100.00
45731;BME280;31440;48.584;13.460;2022-11-15T05:23:58;96688.88;;;0.40;100.00
45731;BME280;31440;48.584;13.460;2022-11-15T05:26:42;96687.16;;;0.56;100.00
45731;BME280;31440;48.584;13.460;2022-11-15T05:29:27;96678.56;;;0.72;100.00
45731;BME280;31440;48.584;13.460;2022-11-15T05:32:12;96669.25;;;0.54;100.00
45731;BME280;31440;48.584;13.460;2022-11-15T05:34:56;96665.03;;;0.27;100.00
45731;BME280;31440;48.584;13.460;2022-11-15T05:37:40;96664.22;;;0.10;100.00
45731;BME280;31440;48.584;13.460;2022-11-15T05:40:25;96668.47;;;0.26;100.00
45731;BME280;31440;48.584;13.460;2022-11-15T05:43:10;96655.63;;;0.51;100.00
45731;BME280;31440;48.584;13.460;2022-11-15T05:45:54;96665.91;;;0.32;100.00
45731;BME280;31440;48.584;13.460;2022-11-15T05:48:41;96663.34;;;0.22;100.00
45731;BME280;31440;48.584;13.460;2022-11-15T05:51:28;96659.97;;;0.12;100.00
45731;BME280;31440;48.584;13.460;2022-11-15T05:54:14;96659.94;;;0.09;100.00
45731;BME280;31440;48.584;13.460;2022-11-15T05:56:59;96654.81;;;0.24;100.00
45731;BME280;31440;48.584;13.460;2022-11-15T05:59:44;96667.63;;;-0.08;100.00
45731;BME280;31440;48.584;13.460;2022-11-15T06:02:28;96661.63;;;0.24;100.00
45731;BME280;31440;48.584;13.460;2022-11-15T06:05:12;96656.53;;;0.30;100.00
45731;BME280;31440;48.584;13.460;2022-11-15T06:07:57;96653.94;;;0.47;100.00
45731;BME280;31440;48.584;13.460;2022-11-15T06:10:42;96656.44;;;0.51;100.00
45731;BME280;31440;48.584;13.460;2022-11-15T06:13:26;96659.91;;;0.42;100.00
45731;BME280;31440;48.584;13.460;2022-11-15T06:16:11;96641.16;;;0.42;100.00
45731;BME280;31440;48.584;13.460;2022-11-15T06:18:55;96653.94;;;0.48;100.00
45731;BME280;31440;48.584;13.460;2022-11-15T06:21:39;96643.69;;;0.48;100.00
45731;BME280;31440;48.584;13.460;2022-11-15T06:24:23;96645.41;;;0.40;100.00
45731;BME280;31440;48.584;13.460;2022-11-15T06:27:08;96641.09;;;0.54;100.00
45731;BME280;31440;48.584;13.460;2022-11-15T06:29:52;96642.78;;;0.64;100.00
45731;BME280;31440;48.584;13.460;2022-11-15T06:32:36;96644.44;;;0.74;100.00
45731;BME280;31440;48.584;13.460;2022-11-15T06:35:20;96637.63;;;0.72;100.00
45731;BME280;31440;48.584;13.460;2022-11-15T06:38:06;96641.09;;;0.51;100.00
45731;BME280;31440;48.584;13.460;2022-11-15T06:40:51;96652.22;;;0.46;100.00
45731;BME280;31440;48.584;13.460;2022-11-15T06:43:36;96645.34;;;0.57;100.00
45731;BME280;31440;48.584;13.460;2022-11-15T06:46:20;96644.50;;;0.64;100.00
45731;BME280;31440;48.584;13.460;2022-11-15T06:49:04;96649.63;;;0.56;100.00
45731;BME280;31440;48.584;13.460;2022-11-15T06:51:48;96654.75;;;0.56;100.00
45731;BME280;31440;48.584;13.460;2022-11-15T06:54:33;96653.94;;;0.47;100.00
45731;BME280;31440;48.584;13.460;2022-11-15T06:57:17;96655.59;;;0.63;100.00
45731;BME280;31440;48.584;13.460;2022-11-15T07:00:04;96654.59;;;0.99;100.00
45731;BME280;31440;48.584;13.460;2022-11-15T07:02:48;96649.03;;;2.67;100.00
45731;BME280;31440;48.584;13.460;2022-11-15T07:05:33;96636.56;;;3.08;100.00
45731;BME280;31440;48.584;13.460;2022-11-15T07:08:17;96643.66;;;2.04;100.00
45731;BME280;31440;48.584;13.460;2022-11-15T07:11:04;96642.94;;;1.88;100.00
45731;BME280;31440;48.584;13.460;2022-11-15T07:13:49;96654.16;;;1.75;100.00
45731;BME280;31440;48.584;13.460;2022-11-15T07:16:33;96649.81;;;1.84;100.00
45731;BME280;31440;48.584;13.460;2022-11-15T07:19:17;96646.53;;;1.64;100.00
45731;BME280;31440;48.584;13.460;2022-11-15T07:22:01;96640.53;;;1.70;100.00
45731;BME280;31440;48.584;13.460;2022-11-15T07:24:45;96644.91;;;1.53;100.00
45731;BME280;31440;48.584;13.460;2022-11-15T07:27:30;96636.22;;;1.73;100.00
45731;BME280;31440;48.584;13.460;2022-11-15T07:30:14;96630.03;;;1.99;100.00
45731;BME280;31440;48.584;13.460;2022-11-15T07:32:59;96627.84;;;1.53;100.00
45731;BME280;31440;48.584;13.460;2022-11-15T07:35:44;96619.44;;;1.31;100.00
45731;BME280;31440;48.584;13.460;2022-11-15T07:38:33;96623.59;;;1.47;100.00
45731;BME280;31440;48.584;13.460;2022-11-15T07:41:18;96624.41;;;1.56;100.00
45731;BME280;31440;48.584;13.460;2022-11-15T07:44:02;96622.59;;;1.70;100.00
45731;BME280;31440;48.584;13.460;2022-11-15T07:46:46;96614.81;;;1.79;100.00
45731;BME280;31440;48.584;13.460;2022-11-15T07:49:30;96616.34;;;1.97;100.00
45731;BME280;31440;48.584;13.460;2022-11-15T07:52:15;96618.72;;;2.18;100.00
45731;BME280;31440;48.584;13.460;2022-11-15T07:54:59;96616.75;;;2.46;100.00
45731;BME280;31440;48.584;13.460;2022-11-15T07:57:44;96616.00;;;2.35;100.00
45731;BME280;31440;48.584;13.460;2022-11-15T08:00:28;96624.13;;;2.73;100.00
45731;BME280;31440;48.584;13.460;2022-11-15T08:03:14;96613.25;;;3.20;100.00
45731;BME280;31440;48.584;13.460;2022-11-15T08:05:58;96621.88;;;3.19;100.00
45731;BME280;31440;48.584;13.460;2022-11-15T08:08:42;96625.22;;;3.23;100.00
45731;BME280;31440;48.584;13.460;2022-11-15T08:11:26;96620.06;;;3.23;100.00
45731;BME280;31440;48.584;13.460;2022-11-15T08:14:11;96617.66;;;3.72;100.00
45731;BME280;31440;48.584;13.460;2022-11-15T08:16:55;96619.34;;;3.73;100.00
45731;BME280;31440;48.584;13.460;2022-11-15T08:19:39;96614.16;;;3.19;100.00
45731;BME280;31440;48.584;13.460;2022-11-15T08:22:23;96612.91;;;3.46;100.00
45731;BME280;31440;48.584;13.460;2022-11-15T08:25:08;96613.88;;;3.38;100.00
45731;BME280;31440;48.584;13.460;2022-11-15T08:27:54;96605.78;;;3.02;100.00
45731;BME280;31440;48.584;13.460;2022-11-15T08:30:40;96606.81;;;2.91;100.00
45731;BME280;31440;48.584;13.460;2022-11-15T08:33:26;96595.56;;;3.59;100.00
45731;BME280;31440;48.584;13.460;2022-11-15T08:36:13;96588.28;;;3.32;100.00
45731;BME280;31440;48.584;13.460;2022-11-15T08:38:58;96593.41;;;3.33;100.00
45731;BME280;31440;48.584;13.460;2022-11-15T08:41:42;96584.84;;;3.33;100.00
45731;BME280;31440;48.584;13.460;2022-11-15T08:44:26;96591.78;;;3.26;100.00
45731;BME280;31440;48.584;13.460;2022-11-15T08:47:11;96585.63;;;3.91;100.00
45731;BME280;31440;48.584;13.460;2022-11-15T08:49:55;96592.13;;;3.60;100.00
45731;BME280;31440;48.584;13.460;2022-11-15T08:52:39;96588.59;;;3.67;100.00
45731;BME280;31440;48.584;13.460;2022-11-15T08:55:24;96581.69;;;4.23;100.00
45731;BME280;31440;48.584;13.460;2022-11-15T08:58:08;96570.59;;;5.06;100.00
45731;BME280;31440;48.584;13.460;2022-11-15T09:00:52;96574.78;;;4.68;100.00
45731;BME280;31440;48.584;13.460;2022-11-15T09:03:36;96569.81;;;5.01;100.00
45731;BME280;31440;48.584;13.460;2022-11-15T09:06:21;96568.41;;;5.64;100.00
45731;BME280;31440;48.584;13.460;2022-11-15T09:09:05;96574.97;;;6.46;100.00
45731;BME280;31440;48.584;13.460;2022-11-15T09:11:49;96570.59;;;6.14;100.00
45731;BME280;31440;48.584;13.460;2022-11-15T09:14:34;96567.13;;;6.80;100.00
45731;BME280;31440;48.584;13.460;2022-11-15T09:17:19;96555.25;;;7.86;100.00
45731;BME280;31440;48.584;13.460;2022-11-15T09:20:03;96556.06;;;7.88;100.00
45731;BME280;31440;48.584;13.460;2022-11-15T09:22:48;96562.09;;;7.62;100.00
45731;BME280;31440;48.584;13.460;2022-11-15T09:25:32;96563.81;;;7.05;100.00
45731;BME280;31440;48.584;13.460;2022-11-15T09:28:17;96557.78;;;7.05;100.00
45731;BME280;31440;48.584;13.460;2022-11-15T09:31:04;96562.44;;;6.94;100.00
45731;BME280;31440;48.584;13.460;2022-11-15T09:33:48;96550.38;;;7.22;100.00
45731;BME280;31440;48.584;13.460;2022-11-15T09:36:32;96543.22;;;7.02;100.00
45731;BME280;31440;48.584;13.460;2022-11-15T09:39:17;96542.03;;;6.83;100.00
45731;BME280;31440;48.584;13.460;2022-11-15T09:51:45;96514.44;;;8.20;100.00
45731;BME280;31440;48.584;13.460;2022-11-15T09:54:35;96504.44;;;9.04;100.00
45731;BME280;31440;48.584;13.460;2022-11-15T09:57:05;96502.97;;;8.97;100.00
45731;BME280;31440;48.584;13.460;2022-11-15T10:05:03;96487.38;;;8.99;100.00
45731;BME280;31440;48.584;13.460;2022-11-15T10:10:27;96474.91;;;9.08;100.00
45731;BME280;31440;48.584;13.460;2022-11-15T10:12:55;96477.19;;;9.16;100.00
45731;BME280;31440;48.584;13.460;2022-11-15T10:15:21;96473.81;;;9.36;100.00
45731;BME280;31440;48.584;13.460;2022-11-15T10:21:02;96465.09;;;10.01;100.00
45731;BME280;31440;48.584;13.460;2022-11-15T10:23:34;96467.06;;;10.16;100.00
45731;BME280;31440;48.584;13.460;2022-11-15T10:26:00;96470.88;;;9.23;100.00
45731;BME280;31440;48.584;13.460;2022-11-15T10:28:30;96466.47;;;9.25;100.00
45731;BME280;31440;48.584;13.460;2022-11-15T10:30:58;96454.44;;;9.65;100.00
45731;BME280;31440;48.584;13.460;2022-11-15T10:33:35;96450.94;;;9.66;100.00
45731;BME280;31440;48.584;13.460;2022-11-15T10:43:44;96430.69;;;10.16;100.00
45731;BME280;31440;48.584;13.460;2022-11-15T10:46:27;96422.28;;;10.30;100.00
45731;BME280;31440;48.584;13.460;2022-11-15T10:48:53;96426.72;;;10.65;100.00
45731;BME280;31440;48.584;13.460;2022-11-15T10:51:26;96428.41;;;10.66;100.00
45731;BME280;31440;48.584;13.460;2022-11-15T10:53:55;96414.16;;;11.11;100.00
45731;BME280;31440;48.584;13.460;2022-11-15T10:56:23;96411.47;;;10.95;100.00
45731;BME280;31440;48.584;13.460;2022-11-15T10:58:53;96404.88;;;11.60;96.53
45731;BME280;31440;48.584;13.460;2022-11-15T11:01:23;96395.31;;;11.78;94.87
45731;BME280;31440;48.584;13.460;2022-11-15T11:04:06;96399.56;;;11.62;97.66
45731;BME280;31440;48.584;13.460;2022-11-15T11:06:56;96384.13;;;12.09;94.31
45731;BME280;31440;48.584;13.460;2022-11-15T11:11:57;96373.44;;;12.31;91.23
45731;BME280;31440;48.584;13.460;2022-11-15T11:14:25;96371.41;;;12.69;92.03
45731;BME280;31440;48.584;13.460;2022-11-15T11:16:57;96359.63;;;12.77;87.46
45731;BME280;31440;48.584;13.460;2022-11-15T11:25:02;96339.19;;;13.61;80.37
45731;BME280;31440;48.584;13.460;2022-11-15T11:27:36;96345.25;;;13.32;78.90
45731;BME280;31440;48.584;13.460;2022-11-15T11:30:18;96339.69;;;12.61;80.64
45731;BME280;31440;48.584;13.460;2022-11-15T11:35:56;96331.34;;;13.31;75.69
45731;BME280;31440;48.584;13.460;2022-11-15T11:38:51;96328.22;;;13.24;75.68
45731;BME280;31440;48.584;13.460;2022-11-15T11:47:30;96305.09;;;15.43;68.64
45731;BME280;31440;48.584;13.460;2022-11-15T11:50:11;96303.56;;;14.17;71.63
45731;BME280;31440;48.584;13.460;2022-11-15T11:52:46;96296.56;;;14.17;71.57
45731;BME280;31440;48.584;13.460;2022-11-15T11:55:31;96299.00;;;13.63;73.77
45731;BME280;31440;48.584;13.460;2022-11-15T12:01:11;96279.97;;;14.74;69.15
45731;BME280;31440;48.584;13.460;2022-11-15T12:03:43;96289.28;;;14.37;70.21
45731;BME280;31440;48.584;13.460;2022-11-15T12:06:31;96269.66;;;15.24;68.36
45731;BME280;31440;48.584;13.460;2022-11-15T12:09:10;96265.66;;;15.84;64.25
45731;BME280;31440;48.584;13.460;2022-11-15T12:14:42;96242.34;;;15.92;62.06
45731;BME280;31440;48.584;13.460;2022-11-15T12:17:11;96240.75;;;17.23;61.63
45731;BME280;31440;48.584;13.460;2022-11-15T12:19:38;96243.16;;;16.91;60.34
45731;BME280;31440;48.584;13.460;2022-11-15T12:22:13;96233.56;;;16.79;62.93
45731;BME280;31440;48.584;13.460;2022-11-15T12:24:48;96230.38;;;17.21;60.29
45731;BME280;31440;48.584;13.460;2022-11-15T12:28:07;96224.44;;;17.99;58.48
45731;BME280;31440;48.584;13.460;2022-11-15T12:30:12;96228.13;;;17.63;55.46
45731;BME280;31440;48.584;13.460;2022-11-15T12:32:41;96227.47;;;16.05;60.24
45731;BME280;31440;48.584;13.460;2022-11-15T12:35:35;96220.34;;;16.44;59.51
45731;BME280;31440;48.584;13.460;2022-11-15T12:38:02;96224.69;;;16.56;59.36
45731;BME280;31440;48.584;13.460;2022-11-15T12:41:18;96228.53;;;15.90;59.29
45731;BME280;31440;48.584;13.460;2022-11-15T12:45:44;96209.78;;;17.04;57.96
45731;BME280;31440;48.584;13.460;2022-11-15T12:56:09;96205.09;;;17.31;58.28
45731;BME280;31440;48.584;13.460;2022-11-15T12:58:46;96201.94;;;16.80;57.61
45731;BME280;31440;48.584;13.460;2022-11-15T13:06:42;96195.28;;;17.22;54.63
45731;BME280;31440;48.584;13.460;2022-11-15T13:12:00;96187.41;;;16.87;56.48
45731;BME280;31440;48.584;13.460;2022-11-15T13:19:49;96177.03;;;17.32;57.37
45731;BME280;31440;48.584;13.460;2022-11-15T13:22:17;96168.88;;;17.70;55.57
45731;BME280;31440;48.584;13.460;2022-11-15T13:25:02;96173.25;;;17.58;55.15
45731;BME280;31440;48.584;13.460;2022-11-15T13:27:28;96163.38;;;17.84;54.83
45731;BME280;31440;48.584;13.460;2022-11-15T13:29:54;96164.81;;;17.08;54.79
45731;BME280;31440;48.584;13.460;2022-11-15T13:32:21;96158.66;;;17.32;54.27
45731;BME280;31440;48.584;13.460;2022-11-15T13:34:48;96158.38;;;17.35;53.94
45731;BME280;31440;48.584;13.460;2022-11-15T13:39:47;96165.72;;;16.96;55.73
45731;BME280;31440;48.584;13.460;2022-11-15T13:42:18;96170.59;;;16.42;56.10
45731;BME280;31440;48.584;13.460;2022-11-15T13:44:59;96149.84;;;16.39;56.36
45731;BME280;31440;48.584;13.460;2022-11-15T13:47:26;96160.97;;;16.06;56.70
45731;BME280;31440;48.584;13.460;2022-11-15T13:49:53;96160.50;;;15.88;57.85
45731;BME280;31440;48.584;13.460;2022-11-15T13:52:18;96159.16;;;15.19;59.54
45731;BME280;31440;48.584;13.460;2022-11-15T13:55:01;96154.00;;;15.43;59.75
45731;BME280;31440;48.584;13.460;2022-11-15T13:57:42;96152.09;;;15.83;58.51
45731;BME280;31440;48.584;13.460;2022-11-15T14:00:30;96149.88;;;14.63;61.07
45731;BME280;31440;48.584;13.460;2022-11-15T14:03:05;96150.97;;;14.59;62.32
45731;BME280;31440;48.584;13.460;2022-11-15T14:05:32;96141.94;;;14.50;63.94
45731;BME280;31440;48.584;13.460;2022-11-15T14:08:05;96144.91;;;14.31;63.38
45731;BME280;31440;48.584;13.460;2022-11-15T14:10:38;96151.03;;;13.62;66.91
45731;BME280;31440;48.584;13.460;2022-11-15T14:13:11;96146.44;;;13.52;66.27
45731;BME280;31440;48.584;13.460;2022-11-15T14:15:51;96146.50;;;12.18;74.00
45731;BME280;31440;48.584;13.460;2022-11-15T14:18:40;96151.63;;;11.57;77.99
45731;BME280;31440;48.584;13.460;2022-11-15T14:21:07;96147.78;;;11.95;77.25
45731;BME280;31440;48.584;13.460;2022-11-15T14:23:34;96154.97;;;11.43;80.75
45731;BME280;31440;48.584;13.460;2022-11-15T14:26:00;96155.09;;;11.24;83.27
45731;BME280;31440;48.584;13.460;2022-11-15T14:30:53;96134.00;;;10.27;93.36
45731;BME280;31440;48.584;13.460;2022-11-15T14:33:25;96147.09;;;10.06;98.96
45731;BME280;31440;48.584;13.460;2022-11-15T14:35:53;96137.50;;;9.52;100.00
45731;BME280;31440;48.584;13.460;2022-11-15T14:38:20;96132.53;;;9.85;100.00
45731;BME280;31440;48.584;13.460;2022-11-15T14:40:46;96129.09;;;9.66;100.00
45731;BME280;31440;48.584;13.460;2022-11-15T14:43:12;96136.44;;;9.19;100.00
45731;BME280;31440;48.584;13.460;2022-11-15T14:45:38;96141.63;;;9.19;100.00
45731;BME280;31440;48.584;13.460;2022-11-15T14:48:04;96147.75;;;8.77;100.00
45731;BME280;31440;48.584;13.460;2022-11-15T14:50:29;96149.34;;;8.19;100.00
45731;BME280;31440;48.584;13.460;2022-11-15T14:52:56;96145.75;;;8.43;100.00
45731;BME280;31440;48.584;13.460;2022-11-15T14:57:53;96140.59;;;8.21;100.00
45731;BME280;31440;48.584;13.460;2022-11-15T15:00:19;96138.78;;;7.80;100.00
45731;BME280;31440;48.584;13.460;2022-11-15T15:02:46;96135.59;;;7.73;100.00
45731;BME280;31440;48.584;13.460;2022-11-15T15:05:20;96133.22;;;7.45;100.00
45731;BME280;31440;48.584;13.460;2022-11-15T15:07:46;96133.63;;;7.11;100.00
45731;BME280;31440;48.584;13.460;2022-11-15T15:10:13;96147.13;;;7.43;100.00
45731;BME280;31440;48.584;13.460;2022-11-15T15:12:39;96123.72;;;6.99;100.00
45731;BME280;31440;48.584;13.460;2022-11-15T15:15:05;96146.19;;;6.97;100.00
45731;BME280;31440;48.584;13.460;2022-11-15T15:17:31;96149.25;;;6.83;100.00
45731;BME280;31440;48.584;13.460;2022-11-15T15:19:57;96139.53;;;6.66;100.00
45731;BME280;31440;48.584;13.460;2022-11-15T15:22:22;96142.81;;;6.45;100.00
45731;BME280;31440;48.584;13.460;2022-11-15T15:24:51;96135.78;;;6.24;100.00
45731;BME280;31440;48.584;13.460;2022-11-15T15:27:17;96138.78;;;6.10;100.00
45731;BME280;31440;48.584;13.460;2022-11-15T15:29:42;96144.31;;;5.99;100.00
45731;BME280;31440;48.584;13.460;2022-11-15T15:32:09;96138.53;;;5.91;100.00
45731;BME280;31440;48.584;13.460;2022-11-15T15:34:36;96141.41;;;5.54;100.00
45731;BME280;31440;48.584;13.460;2022-11-15T15:37:26;96144.22;;;5.47;100.00
45731;BME280;31440;48.584;13.460;2022-11-15T15:39:53;96143.97;;;5.54;100.00
45731;BME280;31440;48.584;13.460;2022-11-15T15:42:19;96143.75;;;5.62;100.00
45731;BME280;31440;48.584;13.460;2022-11-15T15:44:46;96118.63;;;5.41;100.00
45731;BME280;31440;48.584;13.460;2022-11-15T15:47:13;96129.06;;;5.36;100.00
45731;BME280;31440;48.584;13.460;2022-11-15T15:49:41;96142.19;;;5.28;100.00
45731;BME280;31440;48.584;13.460;2022-11-15T15:52:06;96144.47;;;5.38;100.00
45731;BME280;31440;48.584;13.460;2022-11-15T15:54:32;96140.38;;;5.32;100.00